Mescalero Apache Indian Rese, New Mexico
Current Conditions -  °F | °C
As of 6:55 AM on Friday 31 Oct 2014 (Local Time) from KSRR Reporting Station
Clear Clear  
Wind Chill: 33°   Ceiling: Unl
Heat Index: 39°   Visibility: 10mi
Dew Point: 32°   Wind: 9mph
Humidity: 75%   Direction: 140°SE
Pressure: 30.47"   Gusts: NA
Location:  33.1783°N, 105.612°W
Report Text: KSRR 311255Z AUTO 14008KT 10SM CLR 04/00 A3047 RMK AO2
Loading
Personal Weather Stations






























Interactive Weather Map
Tropical Storm Tracking
New forecast layout! Learn more

10-Day Weather Forecast

Advertisements
Track Severe Weather on mobile